createdAt,value
2018-05-24T00:01:42.269Z,75.72
2018-05-24T00:04:10.557Z,75.39
2018-05-24T00:06:38.814Z,75.08
2018-05-24T00:09:07.121Z,74.92
2018-05-24T00:11:36.296Z,75.10
2018-05-24T00:14:04.601Z,75.34
2018-05-24T00:16:33.677Z,75.54
2018-05-24T00:19:01.999Z,75.24
2018-05-24T00:21:31.051Z,74.93
2018-05-24T00:23:59.806Z,75.12
2018-05-24T00:26:28.077Z,75.64
2018-05-24T00:28:56.567Z,75.93
2018-05-24T00:31:24.860Z,75.81
2018-05-24T00:33:53.106Z,75.60
2018-05-24T00:36:21.414Z,75.67
2018-05-24T00:38:49.670Z,76.15
2018-05-24T00:41:17.964Z,76.44
2018-05-24T00:43:46.245Z,76.28
2018-05-24T00:46:14.738Z,76.53
2018-05-24T00:48:43.922Z,76.88
2018-05-24T00:51:12.487Z,76.63
2018-05-24T00:53:40.750Z,76.55
2018-05-24T00:56:09.065Z,76.63
2018-05-24T00:58:37.327Z,76.53
2018-05-24T01:01:05.758Z,76.46
2018-05-24T01:03:34.027Z,76.28
2018-05-24T01:06:02.327Z,76.71
2018-05-24T01:08:30.602Z,76.82
2018-05-24T01:10:59.526Z,76.52
2018-05-24T01:13:27.825Z,76.10
2018-05-24T01:15:56.102Z,76.25
2018-05-24T01:18:24.375Z,75.99
2018-05-24T01:20:52.642Z,75.95
2018-05-24T01:23:20.938Z,76.10
2018-05-24T01:25:49.510Z,76.52
2018-05-24T01:28:17.817Z,76.97
2018-05-24T01:30:46.091Z,77.04
2018-05-24T01:33:14.406Z,77.08
2018-05-24T01:35:43.348Z,77.17
2018-05-24T01:38:12.350Z,77.14
2018-05-24T01:40:40.626Z,77.17
2018-05-24T01:43:08.914Z,76.82
2018-05-24T01:45:37.170Z,76.71
2018-05-24T01:48:05.452Z,76.73
2018-05-24T01:50:34.226Z,77.01
2018-05-24T01:53:02.598Z,77.25
2018-05-24T01:55:30.889Z,77.42
2018-05-24T01:57:59.178Z,77.31
2018-05-24T02:00:27.469Z,77.23
2018-05-24T02:02:55.829Z,77.17
2018-05-24T02:05:24.102Z,76.45
2018-05-24T02:07:53.095Z,76.35
2018-05-24T02:10:21.415Z,76.77
2018-05-24T02:12:49.671Z,77.11
2018-05-24T02:15:17.969Z,77.37
2018-05-24T02:17:46.233Z,77.64
2018-05-24T02:20:14.629Z,77.50
2018-05-24T02:22:43.111Z,77.21
2018-05-24T02:25:11.484Z,77.16
2018-05-24T02:27:39.763Z,77.25
2018-05-24T02:30:08.146Z,77.62
2018-05-24T02:32:36.415Z,77.63
2018-05-24T02:35:05.060Z,77.79
2018-05-24T02:37:33.327Z,78.46
2018-05-24T02:40:01.620Z,78.60
2018-05-24T02:42:29.894Z,78.28
2018-05-24T02:44:58.615Z,77.90
2018-05-24T02:47:26.988Z,77.53
2018-05-24T02:49:55.358Z,77.39
2018-05-24T02:52:24.666Z,77.12
2018-05-24T02:54:52.929Z,76.49
2018-05-24T02:57:21.263Z,76.51
2018-05-24T02:59:49.626Z,76.29
2018-05-24T03:02:18.195Z,76.20
2018-05-24T03:04:46.819Z,76.23
2018-05-24T03:07:15.123Z,76.46
2018-05-24T03:09:43.414Z,76.52
2018-05-24T03:12:11.902Z,76.98
2018-05-24T03:14:40.179Z,77.39
2018-05-24T03:17:08.486Z,77.61
2018-05-24T03:19:36.766Z,77.46
2018-05-24T03:22:05.871Z,77.48
2018-05-24T03:24:34.131Z,78.27
2018-05-24T03:27:02.457Z,78.27
2018-05-24T03:29:30.741Z,78.22
2018-05-24T03:31:59.041Z,78.41
2018-05-24T03:34:27.372Z,78.70
2018-05-24T03:36:55.657Z,78.97
2018-05-24T03:39:24.187Z,79.11
2018-05-24T03:41:52.665Z,79.03
2018-05-24T03:44:20.993Z,79.19
2018-05-24T03:46:49.275Z,79.03
2018-05-24T03:49:17.881Z,79.21
2018-05-24T03:51:46.750Z,79.83
2018-05-24T03:54:15.062Z,80.85
2018-05-24T03:56:43.333Z,80.76
2018-05-24T04:02:41.609Z,79.26
2018-05-24T04:05:09.912Z,79.16
2018-05-24T04:07:38.238Z,79.25
2018-05-24T04:10:06.754Z,79.30
2018-05-24T04:12:35.041Z,78.79
2018-05-24T04:15:03.806Z,78.43
2018-05-24T04:17:32.605Z,77.94
2018-05-24T04:20:01.026Z,78.43
2018-05-24T04:22:29.294Z,78.54
2018-05-24T04:24:57.594Z,77.87
2018-05-24T04:27:25.865Z,77.61
2018-05-24T04:29:54.600Z,77.50
2018-05-24T04:32:22.886Z,77.78
2018-05-24T04:34:51.574Z,77.85
2018-05-24T04:37:20.377Z,78.21
2018-05-24T04:39:48.671Z,78.21
2018-05-24T04:42:17.165Z,78.08
2018-05-24T04:44:45.458Z,78.12
2018-05-24T04:47:13.835Z,78.34
2018-05-24T04:49:42.141Z,78.49
2018-05-24T04:52:10.469Z,78.46
2018-05-24T04:54:39.126Z,79.24
2018-05-24T04:57:08.105Z,79.68
2018-05-24T04:59:36.410Z,79.27
2018-05-24T05:02:05.774Z,79.14
2018-05-24T05:04:34.054Z,78.91
2018-05-24T05:07:02.363Z,78.92
2018-05-24T05:09:31.455Z,79.00
2018-05-24T05:11:59.742Z,78.72
2018-05-24T05:14:28.053Z,78.08
2018-05-24T05:16:56.374Z,78.29
2018-05-24T05:19:24.659Z,78.06
2018-05-24T05:21:53.275Z,77.93
2018-05-24T05:24:21.538Z,77.48
2018-05-24T05:26:49.831Z,77.29
2018-05-24T05:29:18.110Z,77.79
2018-05-24T05:31:46.415Z,78.27
2018-05-24T05:34:14.686Z,77.70
2018-05-24T05:36:43.028Z,77.30
2018-05-24T05:39:11.300Z,77.22
2018-05-24T05:41:39.619Z,77.12
2018-05-24T05:44:07.898Z,77.16
2018-05-24T05:46:36.202Z,77.06
2018-05-24T05:49:05.445Z,76.53
2018-05-24T05:51:34.377Z,76.10
2018-05-24T05:54:02.703Z,76.09
2018-05-24T05:56:30.983Z,76.72
2018-05-24T05:58:59.278Z,77.22
2018-05-24T06:01:27.555Z,77.42
2018-05-24T06:03:55.871Z,77.38
2018-05-24T06:06:24.146Z,77.74
2018-05-24T06:08:52.438Z,77.45
2018-05-24T06:11:21.397Z,76.86
2018-05-24T06:13:49.759Z,76.59
2018-05-24T06:16:17.975Z,76.38
2018-05-24T06:18:46.558Z,76.31
2018-05-24T06:21:14.802Z,76.90
2018-05-24T06:23:43.101Z,76.31
2018-05-24T06:26:11.362Z,75.87
2018-05-24T06:28:39.671Z,75.47
2018-05-24T06:31:08.350Z,75.12
2018-05-24T06:33:36.748Z,75.62
2018-05-24T06:36:05.042Z,74.50
2018-05-24T06:38:33.335Z,74.31
2018-05-24T06:41:01.607Z,73.92
2018-05-24T06:43:29.907Z,73.62
2018-05-24T06:45:58.182Z,73.33
2018-05-24T06:48:26.491Z,73.06
2018-05-24T06:50:54.775Z,72.81
2018-05-24T06:53:23.057Z,72.47
2018-05-24T06:55:51.364Z,72.52
2018-05-24T06:58:19.638Z,72.48
2018-05-24T07:00:48.554Z,72.40
2018-05-24T07:03:16.841Z,71.90
2018-05-24T07:05:45.181Z,71.38
2018-05-24T07:08:13.457Z,71.16
2018-05-24T07:10:41.816Z,71.23
2018-05-24T07:13:10.106Z,71.07
2018-05-24T07:15:38.426Z,70.99
2018-05-24T07:18:06.715Z,70.96
2018-05-24T07:20:35.070Z,70.37
2018-05-24T07:23:03.365Z,70.17
2018-05-24T07:25:31.884Z,70.41
2018-05-24T07:28:00.638Z,70.46
2018-05-24T07:30:28.978Z,70.65
2018-05-24T07:32:57.255Z,70.58
2018-05-24T07:35:25.688Z,70.09
2018-05-24T07:37:54.034Z,70.08
2018-05-24T07:40:22.223Z,69.87
2018-05-24T07:42:50.522Z,68.35
2018-05-24T07:45:18.823Z,68.71
2018-05-24T07:47:47.087Z,68.74
2018-05-24T07:50:15.376Z,68.98
2018-05-24T07:52:43.729Z,69.02
2018-05-24T07:55:12.018Z,68.40
2018-05-24T07:57:40.312Z,68.01
2018-05-24T08:00:08.590Z,68.62
2018-05-24T08:02:36.897Z,68.90
2018-05-24T08:05:05.650Z,69.72
2018-05-24T08:07:33.982Z,70.13
2018-05-24T08:10:02.313Z,70.19
2018-05-24T08:12:30.597Z,69.98
2018-05-24T08:14:58.873Z,70.46
2018-05-24T08:17:27.414Z,70.85
2018-05-24T08:19:55.783Z,71.09
2018-05-24T08:22:24.079Z,71.38
2018-05-24T08:24:52.670Z,71.36
2018-05-24T08:27:20.938Z,70.49
2018-05-24T08:29:49.223Z,69.81
2018-05-24T08:32:17.583Z,68.44
2018-05-24T08:34:45.858Z,68.66
2018-05-24T08:37:14.169Z,68.01
2018-05-24T08:39:42.497Z,67.72
2018-05-24T08:42:10.745Z,67.29
2018-05-24T08:44:39.050Z,67.11
2018-05-24T08:47:08.136Z,66.57
2018-05-24T08:49:36.547Z,66.16
2018-05-24T08:52:05.541Z,65.54
2018-05-24T08:54:33.859Z,65.33
2018-05-24T08:57:02.146Z,65.06
2018-05-24T08:59:30.430Z,64.61
2018-05-24T09:01:59.142Z,63.77
2018-05-24T09:04:27.613Z,64.40
2018-05-24T09:07:02.424Z,64.30
2018-05-24T09:09:36.748Z,64.38
2018-05-24T09:12:10.943Z,64.57
2018-05-24T09:14:45.222Z,64.53
2018-05-24T09:17:19.304Z,64.43
2018-05-24T09:19:53.507Z,64.53
2018-05-24T09:22:27.641Z,64.38
2018-05-24T09:25:01.950Z,64.90
2018-05-24T09:27:36.098Z,64.61
2018-05-24T09:30:10.445Z,63.69
2018-05-24T09:32:44.778Z,63.58
2018-05-24T09:35:18.943Z,63.08
2018-05-24T09:37:53.105Z,62.76
2018-05-24T09:40:27.246Z,61.87
2018-05-24T09:43:01.454Z,61.10
2018-05-24T09:45:35.653Z,61.48
2018-05-24T09:48:09.749Z,61.54
2018-05-24T09:50:44.047Z,61.08
2018-05-24T09:53:18.215Z,60.82
2018-05-24T09:55:52.401Z,61.11
2018-05-24T09:58:26.672Z,60.66
2018-05-24T10:01:00.859Z,58.70
2018-05-24T10:03:35.365Z,57.96
2018-05-24T10:06:09.639Z,57.06
2018-05-24T10:08:43.734Z,56.68
2018-05-24T10:11:18.079Z,56.50
2018-05-24T10:13:52.193Z,56.55
2018-05-24T10:16:26.505Z,56.50
2018-05-24T10:19:00.565Z,56.51
2018-05-24T10:21:34.914Z,56.67
2018-05-24T10:24:09.109Z,56.32
2018-05-24T10:26:43.325Z,55.74
2018-05-24T10:29:18.154Z,56.17
2018-05-24T10:31:52.449Z,56.45
2018-05-24T10:34:27.664Z,56.20
2018-05-24T10:37:01.825Z,56.16
2018-05-24T10:39:36.220Z,56.42
2018-05-24T10:42:10.453Z,56.02
2018-05-24T10:44:44.755Z,56.00
2018-05-24T10:47:19.096Z,55.78
2018-05-24T10:49:53.343Z,55.22
2018-05-24T10:52:27.622Z,55.01
2018-05-24T10:55:01.831Z,54.45
2018-05-24T10:57:36.073Z,54.02
2018-05-24T11:00:10.298Z,53.66
2018-05-24T11:02:45.283Z,53.48
2018-05-24T11:05:20.102Z,53.01
2018-05-24T11:07:54.650Z,52.96
2018-05-24T11:10:28.825Z,52.69
2018-05-24T11:13:02.937Z,52.75
2018-05-24T11:15:37.192Z,53.57
2018-05-24T11:18:11.489Z,53.48
2018-05-24T11:20:45.884Z,52.54
2018-05-24T11:23:20.159Z,53.16
2018-05-24T11:25:54.363Z,54.08
2018-05-24T11:28:28.705Z,57.19
2018-05-24T11:31:03.209Z,57.11
2018-05-24T11:33:37.941Z,57.65
2018-05-24T11:36:12.050Z,58.25
2018-05-24T11:38:46.227Z,58.16
2018-05-24T11:41:20.418Z,59.10
2018-05-24T11:43:54.618Z,59.51
2018-05-24T11:46:28.796Z,60.12
2018-05-24T11:49:03.169Z,59.46
2018-05-24T11:51:37.456Z,58.99
2018-05-24T11:54:11.699Z,59.39
2018-05-24T11:56:45.970Z,59.74
2018-05-24T11:59:20.297Z,60.18
2018-05-24T12:01:55.518Z,61.13
2018-05-24T12:04:29.763Z,61.35
2018-05-24T12:07:05.071Z,61.11
2018-05-24T12:09:39.498Z,61.28
2018-05-24T12:12:13.854Z,60.56
2018-05-24T12:14:48.087Z,60.66
2018-05-24T12:17:22.564Z,60.56
2018-05-24T12:19:56.787Z,60.25
2018-05-24T12:22:30.947Z,61.37
2018-05-24T12:25:05.499Z,62.77
2018-05-24T12:27:39.711Z,62.41
2018-05-24T12:30:13.848Z,62.73
2018-05-24T12:32:48.168Z,62.84
2018-05-24T12:35:22.321Z,65.07
2018-05-24T12:37:56.410Z,64.30
2018-05-24T12:40:30.635Z,64.52
2018-05-24T12:43:04.802Z,63.13
2018-05-24T12:45:39.086Z,63.16
2018-05-24T12:48:14.046Z,64.36
2018-05-24T12:50:48.305Z,65.14
2018-05-24T12:53:22.478Z,64.52
2018-05-24T12:55:57.414Z,64.85
2018-05-24T12:58:31.570Z,64.60
2018-05-24T13:01:05.789Z,64.89
2018-05-24T13:03:40.024Z,65.08
2018-05-24T13:06:14.916Z,64.17
2018-05-24T13:08:49.124Z,65.92
2018-05-24T13:11:23.390Z,65.45
2018-05-24T13:13:57.510Z,66.88
2018-05-24T13:16:31.865Z,66.83
2018-05-24T13:19:06.247Z,64.48
2018-05-24T13:21:40.475Z,66.43
2018-05-24T13:24:14.749Z,67.29
2018-05-24T13:26:49.027Z,66.77
2018-05-24T13:29:23.275Z,66.36
2018-05-24T13:31:57.611Z,67.28
2018-05-24T13:34:31.727Z,67.64
2018-05-24T13:37:06.039Z,68.66
2018-05-24T13:39:40.138Z,70.45
2018-05-24T13:42:14.279Z,73.36
2018-05-24T13:44:48.494Z,72.73
2018-05-24T13:47:22.626Z,73.37
2018-05-24T13:49:57.169Z,75.02
2018-05-24T13:52:31.470Z,76.14
2018-05-24T13:55:05.734Z,75.71
2018-05-24T13:57:45.801Z,74.95
2018-05-24T14:00:20.016Z,73.93
2018-05-24T14:02:54.190Z,73.96
2018-05-24T14:05:28.304Z,74.70
2018-05-24T14:08:03.045Z,75.05
2018-05-24T14:10:37.192Z,74.77
2018-05-24T14:15:51.754Z,76.21
2018-05-24T14:18:25.891Z,76.83
2018-05-24T14:21:00.009Z,77.23
2018-05-24T14:23:34.366Z,78.25
2018-05-24T14:26:08.703Z,78.34
2018-05-24T14:28:42.825Z,78.67
2018-05-24T14:31:17.123Z,78.45
2018-05-24T14:33:51.330Z,78.90
2018-05-24T14:36:25.446Z,78.34
2018-05-24T14:38:59.770Z,79.15
2018-05-24T14:41:34.008Z,79.11
2018-05-24T14:44:08.257Z,79.00
2018-05-24T14:46:42.440Z,79.21
2018-05-24T14:49:16.608Z,79.55
2018-05-24T14:51:50.926Z,79.56
2018-05-24T14:54:25.147Z,79.52
2018-05-24T14:56:59.285Z,79.62
2018-05-24T14:59:33.614Z,79.61
2018-05-24T15:02:07.861Z,79.35
2018-05-24T15:04:43.238Z,78.84
2018-05-24T15:07:17.466Z,79.37
2018-05-24T15:09:51.797Z,79.82
2018-05-24T15:12:25.947Z,79.33
2018-05-24T15:15:00.385Z,79.79
2018-05-24T15:17:34.445Z,79.46
2018-05-24T15:20:08.653Z,79.69
2018-05-24T15:22:42.777Z,79.54
2018-05-24T15:25:16.994Z,80.00
2018-05-24T15:27:51.185Z,79.85
2018-05-24T15:30:25.345Z,78.84
2018-05-24T15:32:59.627Z,79.06
2018-05-24T15:35:34.079Z,78.96
2018-05-24T15:38:08.201Z,78.65
2018-05-24T15:40:42.516Z,78.67
2018-05-24T15:43:16.634Z,79.51
2018-05-24T15:45:50.786Z,79.95
2018-05-24T15:48:24.952Z,79.70
2018-05-24T15:50:59.106Z,79.59
2018-05-24T15:53:33.389Z,80.06
2018-05-24T15:56:08.030Z,78.48
2018-05-24T15:58:42.162Z,78.23
2018-05-24T16:01:16.459Z,77.76
2018-05-24T16:03:50.699Z,77.59
2018-05-24T16:06:24.951Z,77.83
2018-05-24T16:08:59.738Z,77.42
2018-05-24T16:11:33.965Z,78.18
2018-05-24T16:14:02.245Z,78.12
2018-05-24T16:16:31.364Z,77.99
2018-05-24T16:18:59.697Z,77.56
2018-05-24T16:21:28.017Z,77.67
2018-05-24T16:23:56.319Z,77.65
2018-05-24T16:26:24.603Z,77.31
2018-05-24T16:28:52.913Z,77.43
2018-05-24T16:31:21.187Z,76.95
2018-05-24T16:33:49.495Z,76.92
2018-05-24T16:36:17.765Z,77.53
2018-05-24T16:38:46.125Z,77.37
2018-05-24T16:41:14.394Z,76.90
2018-05-24T16:43:42.706Z,76.53
2018-05-24T16:46:10.986Z,76.24
2018-05-24T16:48:39.289Z,76.81
2018-05-24T16:51:07.552Z,77.18
2018-05-24T16:53:35.867Z,77.88
2018-05-24T16:56:05.073Z,77.67
2018-05-24T16:58:33.366Z,77.74
2018-05-24T17:01:01.903Z,77.73
2018-05-24T17:03:30.895Z,77.52
2018-05-24T17:05:59.218Z,77.11
2018-05-24T17:08:27.505Z,76.75
2018-05-24T17:10:55.818Z,76.52
2018-05-24T17:13:24.134Z,76.13
2018-05-24T17:15:52.436Z,76.31
2018-05-24T17:18:20.715Z,75.78
2018-05-24T17:20:49.001Z,74.46
2018-05-24T17:23:17.297Z,72.48
2018-05-24T17:25:45.578Z,71.01
2018-05-24T17:28:15.177Z,70.21
2018-05-24T17:30:43.667Z,69.90
2018-05-24T17:33:12.026Z,70.01
2018-05-24T17:35:40.523Z,69.49
2018-05-24T17:38:09.716Z,69.50
2018-05-24T17:40:38.012Z,69.30
2018-05-24T17:43:06.295Z,69.13
2018-05-24T17:45:34.576Z,69.12
2018-05-24T17:48:02.866Z,69.23
2018-05-24T17:50:31.132Z,69.31
2018-05-24T17:52:59.425Z,69.25
2018-05-24T17:55:27.694Z,69.04
2018-05-24T17:57:56.015Z,69.06
2018-05-24T18:00:24.301Z,69.22
2018-05-24T18:02:52.698Z,69.10
2018-05-24T18:05:20.999Z,69.45
2018-05-24T18:07:49.294Z,69.29
2018-05-24T18:10:18.102Z,68.99
2018-05-24T18:12:46.367Z,68.89
2018-05-24T18:15:14.638Z,68.94
2018-05-24T18:17:43.143Z,68.69
2018-05-24T18:20:11.418Z,68.92
2018-05-24T18:22:40.176Z,69.11
2018-05-24T18:25:08.476Z,69.11
2018-05-24T18:27:36.785Z,69.09
2018-05-24T18:30:05.417Z,69.11
2018-05-24T18:32:33.678Z,68.94
2018-05-24T18:35:01.967Z,68.62
2018-05-24T18:37:30.277Z,68.76
2018-05-24T18:39:58.577Z,68.94
2018-05-24T18:42:26.862Z,68.82
2018-05-24T18:44:55.154Z,68.96
2018-05-24T18:47:23.433Z,69.08
2018-05-24T18:49:51.748Z,69.12
2018-05-24T18:52:20.013Z,69.27
2018-05-24T18:54:48.319Z,69.39
2018-05-24T18:57:16.575Z,69.37
2018-05-24T18:59:44.890Z,71.50
2018-05-24T19:02:13.167Z,73.68
2018-05-24T19:04:41.478Z,75.41
2018-05-24T19:07:09.762Z,76.48
2018-05-24T19:09:38.070Z,76.88
2018-05-24T19:12:06.692Z,77.21
2018-05-24T19:14:34.989Z,77.84
2018-05-24T19:17:03.270Z,78.23
2018-05-24T19:19:31.578Z,78.42
2018-05-24T19:21:59.857Z,78.69
2018-05-24T19:24:28.162Z,78.89
2018-05-24T19:26:56.456Z,79.10
2018-05-24T19:29:24.942Z,79.21
2018-05-24T19:31:54.153Z,79.33
2018-05-24T19:34:22.431Z,79.52
2018-05-24T19:36:50.896Z,79.90
2018-05-24T19:39:20.121Z,80.11
2018-05-24T19:41:48.440Z,80.11
2018-05-24T19:44:16.726Z,80.32
2018-05-24T19:46:45.023Z,80.10
2018-05-24T19:49:13.352Z,80.17
2018-05-24T19:51:42.004Z,81.21
2018-05-24T19:54:10.293Z,82.46
2018-05-24T19:56:38.586Z,82.10
2018-05-24T19:59:06.887Z,81.72
2018-05-24T20:01:35.183Z,81.33
2018-05-24T20:04:03.451Z,80.97
2018-05-24T20:06:31.767Z,81.20
2018-05-24T20:09:00.040Z,81.52
2018-05-24T20:11:28.354Z,81.61
2018-05-24T20:13:56.636Z,81.64
2018-05-24T20:16:24.972Z,81.65
2018-05-24T20:18:54.279Z,81.66
2018-05-24T20:21:22.608Z,81.70
2018-05-24T20:23:50.931Z,81.76
2018-05-24T20:26:19.224Z,81.76
2018-05-24T20:28:48.550Z,82.12
2018-05-24T20:31:16.844Z,81.62
2018-05-24T20:33:45.184Z,81.05
2018-05-24T20:36:13.449Z,81.27
2018-05-24T20:38:41.813Z,81.46
2018-05-24T20:41:10.101Z,81.47
2018-05-24T20:43:38.545Z,81.75
2018-05-24T20:46:07.055Z,81.98
2018-05-24T20:48:35.436Z,81.95
2018-05-24T20:51:03.759Z,81.83
2018-05-24T20:53:32.062Z,81.79
2018-05-24T20:56:04.371Z,81.89
2018-05-24T20:58:32.814Z,81.85
2018-05-24T21:01:01.095Z,81.92
2018-05-24T21:03:29.434Z,81.70
2018-05-24T21:05:58.455Z,81.86
2018-05-24T21:08:27.054Z,81.77
2018-05-24T21:10:55.342Z,81.55
2018-05-24T21:13:23.790Z,81.70
2018-05-24T21:15:52.191Z,81.50
2018-05-24T21:18:20.545Z,81.41
2018-05-24T21:20:49.038Z,81.14
2018-05-24T21:23:17.360Z,80.95
2018-05-24T21:25:45.681Z,81.38
2018-05-24T21:28:14.049Z,81.44
2018-05-24T21:30:42.456Z,81.37
2018-05-24T21:33:10.671Z,81.32
2018-05-24T21:35:38.973Z,81.32
2018-05-24T21:38:07.246Z,81.21
2018-05-24T21:40:35.556Z,81.35
2018-05-24T21:43:04.871Z,81.47
2018-05-24T21:45:33.202Z,81.60
2018-05-24T21:48:01.448Z,81.69
2018-05-24T21:50:29.801Z,82.13
2018-05-24T21:52:58.074Z,82.38
2018-05-24T21:55:26.418Z,81.81
2018-05-24T21:57:54.710Z,81.43
2018-05-24T22:00:23.025Z,81.55
2018-05-24T22:02:53.164Z,81.03
2018-05-24T22:05:21.506Z,81.07
2018-05-24T22:07:49.969Z,80.99
2018-05-24T22:10:18.383Z,81.06
2018-05-24T22:12:46.733Z,81.16
2018-05-24T22:15:15.146Z,81.26
2018-05-24T22:17:43.651Z,81.11
2018-05-24T22:20:11.970Z,81.21
2018-05-24T22:22:40.276Z,81.07
2018-05-24T22:25:08.706Z,81.10
2018-05-24T22:27:38.086Z,81.13
2018-05-24T22:30:06.353Z,81.23
2018-05-24T22:32:34.666Z,81.68
2018-05-24T22:35:02.970Z,81.98
2018-05-24T22:37:31.265Z,82.21
2018-05-24T22:39:59.588Z,82.43
2018-05-24T22:42:28.037Z,82.47
2018-05-24T22:44:56.322Z,82.14
2018-05-24T22:47:24.655Z,82.05
2018-05-24T22:49:52.993Z,81.98
2018-05-24T22:52:22.006Z,82.00
2018-05-24T22:54:50.289Z,81.88
2018-05-24T22:57:18.587Z,81.66
2018-05-24T22:59:46.875Z,81.79
2018-05-24T23:02:15.162Z,81.89
2018-05-24T23:04:43.435Z,82.03
2018-05-24T23:07:12.222Z,82.19
2018-05-24T23:09:40.505Z,82.29
2018-05-24T23:12:09.343Z,82.35
2018-05-24T23:14:37.682Z,82.38
2018-05-24T23:17:05.954Z,81.42
2018-05-24T23:19:34.257Z,80.99
2018-05-24T23:22:02.532Z,81.17
2018-05-24T23:24:30.922Z,81.15
2018-05-24T23:26:59.426Z,81.25
2018-05-24T23:29:27.775Z,81.35
2018-05-24T23:31:56.045Z,81.53
2018-05-24T23:34:24.406Z,81.20
2018-05-24T23:36:52.928Z,80.96
2018-05-24T23:39:21.918Z,80.82
2018-05-24T23:41:50.184Z,80.49
2018-05-24T23:44:18.504Z,80.00
2018-05-24T23:46:46.786Z,80.21
2018-05-24T23:49:15.139Z,80.11
2018-05-24T23:51:43.652Z,80.38
2018-05-24T23:54:13.525Z,80.59
2018-05-24T23:56:41.810Z,80.37
2018-05-24T23:59:10.146Z,80.42
